Time,TemperatureF,DewpointF,PressureIn,WindDirection,WindDirectionDegrees,WindSpeedMPH,WindSpeedGustMPH,Humidity,HourlyPrecipIn,Conditions,Clouds,dailyrainin,SoftwareType,DateUTC
2013-09-10 00:02:00,71.2,68.0,29.95,SSW,199,7.0,12.0,90,0.00,,,0.08,weatherlink.com 1.10,2013-09-10 04:02:00,
2013-09-10 00:17:00,71.3,68.0,29.94,SSW,202,6.0,15.0,90,0.00,,,0.08,weatherlink.com 1.10,2013-09-10 04:17:00,
2013-09-10 00:32:00,71.4,68.0,29.93,SSE,151,8.0,12.0,90,0.00,,,0.00,weatherlink.com 1.10,2013-09-10 04:32:00,
2013-09-10 00:47:00,71.7,69.0,29.91,SSW,199,7.0,15.0,90,0.00,,,0.00,weatherlink.com 1.10,2013-09-10 04:47:00,
2013-09-10 01:02:00,72.4,69.0,29.94,SW,216,8.0,15.0,88,0.00,,,0.00,weatherlink.com 1.10,2013-09-10 05:02:00,
2013-09-10 01:17:00,72.4,69.0,29.93,SSW,199,4.0,14.0,88,0.00,,,0.00,weatherlink.com 1.10,2013-09-10 05:17:00,
2013-09-10 01:32:00,72.1,69.0,29.93,SW,228,3.0,9.0,89,0.00,,,0.00,weatherlink.com 1.10,2013-09-10 05:32:00,
2013-09-10 01:47:00,72.5,69.0,29.93,SSW,197,4.0,12.0,88,0.00,,,0.00,weatherlink.com 1.10,2013-09-10 05:47:00,
2013-09-10 02:02:00,72.8,69.0,29.93,SSE,159,5.0,13.0,88,0.00,,,0.00,weatherlink.com 1.10,2013-09-10 06:02:00,
2013-09-10 02:17:00,72.8,69.0,29.93,SSW,201,3.0,11.0,88,0.00,,,0.00,weatherlink.com 1.10,2013-09-10 06:17:00,
2013-09-10 02:32:00,72.4,69.0,29.93,SSW,196,2.0,8.0,88,0.00,,,0.00,weatherlink.com 1.10,2013-09-10 06:32:00,
2013-09-10 02:47:00,72.1,69.0,29.93,SSW,204,3.0,7.0,89,0.00,,,0.00,weatherlink.com 1.10,2013-09-10 06:47:00,
2013-09-10 03:02:00,72.0,69.0,29.93,SSW,209,1.0,9.0,89,0.00,,,0.00,weatherlink.com 1.10,2013-09-10 07:02:00,
2013-09-10 03:17:00,72.2,69.0,29.93,SSW,196,2.0,8.0,89,0.00,,,0.00,weatherlink.com 1.10,2013-09-10 07:17:00,
2013-09-10 03:32:00,72.4,69.0,29.93,SSW,200,4.0,5.0,88,0.00,,,0.00,weatherlink.com 1.10,2013-09-10 07:32:00,
2013-09-10 03:47:00,73.6,69.0,29.94,SW,225,3.0,7.0,86,0.00,,,0.00,weatherlink.com 1.10,2013-09-10 07:47:00,
2013-09-10 04:02:00,75.7,70.0,29.94,SW,235,4.0,9.0,82,0.00,,,0.00,weatherlink.com 1.10,2013-09-10 08:02:00,
2013-09-10 04:17:00,76.4,70.0,29.94,WSW,238,3.0,11.0,80,0.00,,,0.00,weatherlink.com 1.10,2013-09-10 08:17:00,
2013-09-10 04:33:00,76.3,70.0,29.94,SSW,213,2.0,8.0,80,0.00,,,0.00,weatherlink.com 1.10,2013-09-10 08:33:00,
2013-09-10 04:48:00,75.9,70.0,29.93,SW,228,5.0,17.0,81,0.00,,,0.00,weatherlink.com 1.10,2013-09-10 08:48:00,
2013-09-10 05:03:00,76.0,69.0,29.93,SW,234,3.0,10.0,80,0.00,,,0.00,weatherlink.com 1.10,2013-09-10 09:03:00,
2013-09-10 05:18:00,75.5,70.0,29.93,SSW,194,3.0,15.0,82,0.00,,,0.00,weatherlink.com 1.10,2013-09-10 09:18:00,
2013-09-10 05:33:00,75.0,69.0,29.93,SW,226,3.0,11.0,82,0.00,,,0.00,weatherlink.com 1.10,2013-09-10 09:33:00,
2013-09-10 05:48:00,74.9,69.0,29.94,WSW,248,5.0,12.0,83,0.00,,,0.00,weatherlink.com 1.10,2013-09-10 09:48:00,
2013-09-10 06:03:00,74.5,69.0,29.94,SW,214,5.0,10.0,84,0.00,,,0.00,weatherlink.com 1.10,2013-09-10 10:03:00,
2013-09-10 06:18:00,74.6,70.0,29.94,WSW,254,4.0,15.0,84,0.00,,,0.00,weatherlink.com 1.10,2013-09-10 10:18:00,
2013-09-10 06:33:00,74.2,69.0,29.95,SW,219,6.0,11.0,84,0.00,,,0.00,weatherlink.com 1.10,2013-09-10 10:33:00,
2013-09-10 06:48:00,74.1,69.0,29.95,SW,219,3.0,10.0,85,0.00,,,0.00,weatherlink.com 1.10,2013-09-10 10:48:00,
2013-09-10 07:03:00,74.8,70.0,29.96,SSW,213,2.0,18.0,84,0.00,,,0.00,weatherlink.com 1.10,2013-09-10 11:03:00,
2013-09-10 07:18:00,74.7,70.0,29.96,SW,219,4.0,11.0,84,0.00,,,0.00,weatherlink.com 1.10,2013-09-10 11:18:00,
2013-09-10 07:33:00,75.2,70.0,29.96,South,191,3.0,12.0,83,0.00,,,0.00,weatherlink.com 1.10,2013-09-10 11:33:00,
2013-09-10 07:48:00,75.2,70.0,29.96,SSW,203,6.0,8.0,83,0.00,,,0.00,weatherlink.com 1.10,2013-09-10 11:48:00,
2013-09-10 08:03:00,75.8,70.0,29.96,SSW,211,3.0,7.0,83,0.00,,,0.00,weatherlink.com 1.10,2013-09-10 12:03:00,
2013-09-10 08:18:00,76.5,71.0,29.96,South,182,2.0,9.0,82,0.00,,,0.00,weatherlink.com 1.10,2013-09-10 12:18:00,
2013-09-10 08:33:00,75.9,70.0,29.96,SSW,192,4.0,7.0,83,0.00,,,0.00,weatherlink.com 1.10,2013-09-10 12:33:00,
2013-09-10 08:48:00,76.3,71.0,29.96,SSW,207,4.0,7.0,84,0.00,,,0.00,weatherlink.com 1.10,2013-09-10 12:48:00,
2013-09-10 09:03:00,77.2,71.0,29.96,SSW,211,2.0,10.0,82,0.00,,,0.00,weatherlink.com 1.10,2013-09-10 13:03:00,
2013-09-10 09:18:00,78.4,72.0,29.97,SW,221,3.0,8.0,81,0.00,,,0.00,weatherlink.com 1.10,2013-09-10 13:18:00,
2013-09-10 09:33:00,79.8,72.0,29.97,WSW,255,5.0,10.0,78,0.00,,,0.00,weatherlink.com 1.10,2013-09-10 13:33:00,
2013-09-10 09:48:00,81.3,73.0,29.98,SSW,208,3.0,6.0,76,0.00,,,0.00,weatherlink.com 1.10,2013-09-10 13:48:00,
2013-09-10 10:03:00,82.2,74.0,29.97,SSW,207,3.0,11.0,75,0.00,,,0.00,weatherlink.com 1.10,2013-09-10 14:03:00,
2013-09-10 10:18:00,83.5,74.0,29.98,WSW,238,2.0,9.0,73,0.00,,,0.00,weatherlink.com 1.10,2013-09-10 14:18:00,
2013-09-10 10:33:00,84.2,74.0,29.97,WSW,240,6.0,14.0,72,0.00,,,0.00,weatherlink.com 1.10,2013-09-10 14:33:00,
2013-09-10 10:48:00,85.2,74.0,29.97,WSW,246,2.0,7.0,70,0.00,,,0.00,weatherlink.com 1.10,2013-09-10 14:48:00,
2013-09-10 11:03:00,85.8,75.0,29.97,WSW,238,4.0,8.0,69,0.00,,,0.00,weatherlink.com 1.10,2013-09-10 15:03:00,
2013-09-10 11:18:00,86.2,75.0,29.97,SW,230,3.0,13.0,69,0.00,,,0.00,weatherlink.com 1.10,2013-09-10 15:18:00,
2013-09-10 11:33:00,86.9,75.0,29.97,SSW,198,4.0,10.0,68,0.00,,,0.00,weatherlink.com 1.10,2013-09-10 15:33:00,
2013-09-10 11:48:00,87.4,76.0,29.97,SW,225,4.0,8.0,68,0.00,,,0.00,weatherlink.com 1.10,2013-09-10 15:48:00,
2013-09-10 12:04:00,87.9,76.0,29.97,South,186,4.0,7.0,67,0.00,,,0.00,weatherlink.com 1.10,2013-09-10 16:04:00,
2013-09-10 12:19:00,88.7,76.0,29.97,SW,218,5.0,8.0,66,0.00,,,0.00,weatherlink.com 1.10,2013-09-10 16:19:00,
2013-09-10 12:34:00,89.3,76.0,29.98,SW,229,4.0,7.0,65,0.00,,,0.00,weatherlink.com 1.10,2013-09-10 16:34:00,
2013-09-10 12:49:00,89.8,77.0,29.98,SW,231,6.0,12.0,65,0.00,,,0.00,weatherlink.com 1.10,2013-09-10 16:49:00,
2013-09-10 13:04:00,90.3,76.0,29.97,WSW,238,4.0,8.0,63,0.00,,,0.00,weatherlink.com 1.10,2013-09-10 17:04:00,
2013-09-10 13:19:00,90.8,76.0,29.97,SW,216,4.0,11.0,63,0.00,,,0.00,weatherlink.com 1.10,2013-09-10 17:19:00,
2013-09-10 13:34:00,91.8,77.0,29.97,SSW,213,3.0,6.0,62,0.00,,,0.00,weatherlink.com 1.10,2013-09-10 17:34:00,
2013-09-10 13:49:00,92.2,77.0,29.97,WSW,245,3.0,6.0,61,0.00,,,0.00,weatherlink.com 1.10,2013-09-10 17:49:00,
2013-09-10 14:04:00,92.3,76.0,29.97,SW,224,3.0,6.0,60,0.00,,,0.00,weatherlink.com 1.10,2013-09-10 18:04:00,
2013-09-10 14:19:00,92.5,77.0,29.97,SW,215,3.0,10.0,60,0.00,,,0.00,weatherlink.com 1.10,2013-09-10 18:19:00,
2013-09-10 14:34:00,92.8,76.0,29.97,SSW,210,6.0,11.0,59,0.00,,,0.00,weatherlink.com 1.10,2013-09-10 18:34:00,
2013-09-10 14:49:00,93.3,77.0,29.96,SW,217,3.0,8.0,60,0.00,,,0.00,weatherlink.com 1.10,2013-09-10 18:49:00,
2013-09-10 15:04:00,93.6,77.0,29.96,SW,216,3.0,6.0,59,0.00,,,0.00,weatherlink.com 1.10,2013-09-10 19:04:00,
2013-09-10 15:19:00,93.5,77.0,29.96,WSW,245,4.0,9.0,58,0.00,,,0.00,weatherlink.com 1.10,2013-09-10 19:19:00,
2013-09-10 15:34:00,93.8,77.0,29.95,SW,224,4.0,9.0,58,0.00,,,0.00,weatherlink.com 1.10,2013-09-10 19:34:00,
2013-09-10 15:49:00,92.8,76.0,29.95,SW,234,2.0,9.0,58,0.00,,,0.00,weatherlink.com 1.10,2013-09-10 19:49:00,
2013-09-10 16:04:00,93.6,76.0,29.95,SW,227,2.0,7.0,57,0.00,,,0.00,weatherlink.com 1.10,2013-09-10 20:04:00,
2013-09-10 16:19:00,93.7,76.0,29.95,SW,229,3.0,7.0,56,0.00,,,0.00,weatherlink.com 1.10,2013-09-10 20:19:00,
2013-09-10 16:34:00,93.1,76.0,29.95,West,278,0.0,7.0,57,0.00,,,0.00,weatherlink.com 1.10,2013-09-10 20:34:00,
2013-09-10 16:49:00,92.4,74.0,29.95,WNW,294,2.0,5.0,56,0.00,,,0.00,weatherlink.com 1.10,2013-09-10 20:49:00,
2013-09-10 17:04:00,91.8,73.0,29.95,West,273,1.0,4.0,55,0.00,,,0.00,weatherlink.com 1.10,2013-09-10 21:04:00,
2013-09-10 17:19:00,92.6,74.0,29.95,West,274,1.0,3.0,55,0.00,,,0.00,weatherlink.com 1.10,2013-09-10 21:19:00,
2013-09-10 17:34:00,93.3,75.0,29.95,West,271,1.0,3.0,56,0.00,,,0.00,weatherlink.com 1.10,2013-09-10 21:34:00,
2013-09-10 17:49:00,93.1,74.0,29.95,West,271,0.0,2.0,54,0.00,,,0.00,weatherlink.com 1.10,2013-09-10 21:49:00,
2013-09-10 18:04:00,92.2,74.0,29.95,WNW,284,5.0,5.0,55,0.00,,,0.00,weatherlink.com 1.10,2013-09-10 22:04:00,
2013-09-10 18:19:00,90.6,72.0,29.95,West,269,3.0,8.0,55,0.00,,,0.00,weatherlink.com 1.10,2013-09-10 22:19:00,
2013-09-10 18:34:00,89.8,72.0,29.95,West,265,0.0,6.0,56,0.00,,,0.00,weatherlink.com 1.10,2013-09-10 22:34:00,
2013-09-10 18:49:00,89.2,71.0,29.95,West,273,1.0,6.0,56,0.00,,,0.00,weatherlink.com 1.10,2013-09-10 22:49:00,
2013-09-10 19:04:00,88.3,72.0,29.96,West,273,0.0,2.0,58,0.00,,,0.00,weatherlink.com 1.10,2013-09-10 23:04:00,
2013-09-10 19:19:00,86.4,71.0,29.96,West,275,0.0,2.0,60,0.00,,,0.00,weatherlink.com 1.10,2013-09-10 23:19:00,
2013-09-10 19:34:00,84.4,71.0,29.96,SW,233,0.0,2.0,65,0.00,,,0.00,weatherlink.com 1.10,2013-09-10 23:34:00,
2013-09-10 19:49:00,82.1,72.0,29.96,SW,233,0.0,1.0,72,0.00,,,0.00,weatherlink.com 1.10,2013-09-10 23:49:00,
2013-09-10 20:04:00,80.6,72.0,29.97,SW,233,0.0,0.0,75,0.00,,,0.00,weatherlink.com 1.10,2013-09-11 00:04:00,
2013-09-10 20:19:00,79.2,72.0,29.98,SW,234,0.0,2.0,78,0.00,,,0.00,weatherlink.com 1.10,2013-09-11 00:19:00,
2013-09-10 20:34:00,78.7,71.0,29.98,SW,233,1.0,2.0,78,0.00,,,0.00,weatherlink.com 1.10,2013-09-11 00:34:00,
2013-09-10 20:49:00,78.1,71.0,29.98,SSW,193,1.0,3.0,79,0.00,,,0.00,weatherlink.com 1.10,2013-09-11 00:49:00,
2013-09-10 21:04:00,78.3,72.0,29.99,South,190,2.0,4.0,82,0.00,,,0.00,weatherlink.com 1.10,2013-09-11 01:04:00,
2013-09-10 21:19:00,79.4,74.0,29.99,South,184,1.0,5.0,82,0.00,,,0.00,weatherlink.com 1.10,2013-09-11 01:19:00,
2013-09-10 21:34:00,80.5,74.0,29.99,SSW,192,0.0,4.0,80,0.00,,,0.00,weatherlink.com 1.10,2013-09-11 01:34:00,
2013-09-10 21:49:00,80.0,74.0,30.00,SSW,207,1.0,5.0,83,0.00,,,0.00,weatherlink.com 1.10,2013-09-11 01:49:00,
2013-09-10 22:04:00,80.0,74.0,30.00,SSW,196,1.0,5.0,83,0.00,,,0.00,weatherlink.com 1.10,2013-09-11 02:04:00,
2013-09-10 22:19:00,79.5,74.0,30.00,SSW,201,2.0,6.0,84,0.00,,,0.00,weatherlink.com 1.10,2013-09-11 02:19:00,
2013-09-10 22:34:00,79.1,75.0,30.00,South,181,4.0,7.0,86,0.00,,,0.00,weatherlink.com 1.10,2013-09-11 02:34:00,
2013-09-10 22:49:00,78.7,74.0,30.00,South,187,4.0,8.0,86,0.00,,,0.00,weatherlink.com 1.10,2013-09-11 02:49:00,
2013-09-10 23:04:00,78.6,74.0,30.00,South,169,5.0,7.0,86,0.00,,,0.00,weatherlink.com 1.10,2013-09-11 03:04:00,
2013-09-10 23:19:00,78.6,74.0,30.00,SSW,194,3.0,7.0,86,0.00,,,0.00,weatherlink.com 1.10,2013-09-11 03:19:00,
2013-09-10 23:34:00,79.1,75.0,30.00,SW,221,6.0,8.0,86,0.00,,,0.00,weatherlink.com 1.10,2013-09-11 03:34:00,
2013-09-10 23:49:00,79.3,75.0,30.00,SSW,201,2.0,8.0,86,0.00,,,0.00,weatherlink.com 1.10,2013-09-11 03:49:00,